createdAt,value
2018-05-31T00:00:54.397Z,955.26
2018-05-31T00:01:54.424Z,955.25
2018-05-31T00:02:54.452Z,955.23
2018-05-31T00:03:54.477Z,955.21
2018-05-31T00:04:54.507Z,955.23
2018-05-31T00:05:54.537Z,955.25
2018-05-31T00:06:54.560Z,955.2
2018-05-31T00:07:54.589Z,955.19
2018-05-31T00:08:54.616Z,955.18
2018-05-31T00:09:54.646Z,955.17
2018-05-31T00:10:54.670Z,955.16
2018-05-31T00:11:54.699Z,955.13
2018-05-31T00:12:54.729Z,955.16
2018-05-31T00:13:54.753Z,955.18
2018-05-31T00:14:54.780Z,955.14
2018-05-31T00:15:54.807Z,955.2
2018-05-31T00:16:54.835Z,955.16
2018-05-31T00:17:54.861Z,955.21
2018-05-31T00:18:54.889Z,955.24
2018-05-31T00:19:54.914Z,955.25
2018-05-31T00:20:54.943Z,955.25
2018-05-31T00:21:54.974Z,955.24
2018-05-31T00:22:54.997Z,955.24
2018-05-31T00:23:55.025Z,955.19
2018-05-31T00:24:55.051Z,955.19
2018-05-31T00:25:55.082Z,955.18
2018-05-31T00:26:55.107Z,955.22
2018-05-31T00:27:55.133Z,955.23
2018-05-31T00:28:55.160Z,955.23
2018-05-31T00:29:55.187Z,955.28
2018-05-31T00:30:55.214Z,955.26
2018-05-31T00:31:55.242Z,955.26
2018-05-31T00:32:55.268Z,955.28
2018-05-31T00:33:55.294Z,955.25
2018-05-31T00:34:55.321Z,955.28
2018-05-31T00:35:55.348Z,955.28
2018-05-31T00:36:55.375Z,955.23
2018-05-31T00:37:55.404Z,955.19
2018-05-31T00:38:55.431Z,955.19
2018-05-31T00:39:55.458Z,955.19
2018-05-31T00:40:55.484Z,955.22
2018-05-31T00:41:55.515Z,955.22
2018-05-31T00:42:55.538Z,955.25
2018-05-31T00:43:55.566Z,955.21
2018-05-31T00:44:55.592Z,955.24
2018-05-31T00:45:55.618Z,955.22
2018-05-31T00:46:55.650Z,955.19
2018-05-31T00:47:55.676Z,955.24
2018-05-31T00:48:55.701Z,955.16
2018-05-31T00:49:55.727Z,955.14
2018-05-31T00:50:55.753Z,955.07
2018-05-31T00:51:55.780Z,955.11
2018-05-31T00:52:55.808Z,955.08
2018-05-31T00:53:55.835Z,955.06
2018-05-31T00:54:55.862Z,955.05
2018-05-31T00:55:55.888Z,955.08
2018-05-31T00:56:55.916Z,955.06
2018-05-31T00:57:55.944Z,955.06
2018-05-31T00:58:55.973Z,955.05
2018-05-31T00:59:55.996Z,955.06
2018-05-31T01:00:56.020Z,955.05
2018-05-31T01:01:56.047Z,955.07
2018-05-31T01:02:56.075Z,955.06
2018-05-31T01:03:56.102Z,955.07
2018-05-31T01:04:56.127Z,955.09
2018-05-31T01:05:56.153Z,955.04
2018-05-31T01:06:56.185Z,955.02
2018-05-31T01:07:56.207Z,955.05
2018-05-31T01:08:56.234Z,955.03
2018-05-31T01:09:56.259Z,955.06
2018-05-31T01:10:56.286Z,955.08
2018-05-31T01:11:56.361Z,955.05
2018-05-31T01:12:56.337Z,955.03
2018-05-31T01:13:56.368Z,955.04
2018-05-31T01:14:56.392Z,955.06
2018-05-31T01:15:56.421Z,955.02
2018-05-31T01:16:56.449Z,955.01
2018-05-31T01:17:56.473Z,954.99
2018-05-31T01:18:56.499Z,955
2018-05-31T01:19:56.529Z,954.95
2018-05-31T01:20:56.551Z,954.98
2018-05-31T01:21:56.583Z,955.02
2018-05-31T01:22:56.612Z,955.02
2018-05-31T01:23:56.630Z,955.01
2018-05-31T01:24:56.657Z,955.05
2018-05-31T01:25:56.681Z,955.02
2018-05-31T01:26:56.708Z,955.03
2018-05-31T01:27:56.733Z,955.03
2018-05-31T01:28:56.760Z,955
2018-05-31T01:29:56.803Z,955.01
2018-05-31T01:30:56.813Z,955.02
2018-05-31T01:31:56.864Z,955
2018-05-31T01:32:56.866Z,954.98
2018-05-31T01:33:56.892Z,954.99
2018-05-31T01:34:56.922Z,955.03
2018-05-31T01:35:56.944Z,954.99
2018-05-31T01:36:56.974Z,955.04
2018-05-31T01:37:57.019Z,955
2018-05-31T01:38:57.023Z,955
2018-05-31T01:39:57.049Z,954.99
2018-05-31T01:40:57.075Z,954.98
2018-05-31T01:41:57.100Z,954.98
2018-05-31T01:42:57.127Z,955.04
2018-05-31T01:43:57.155Z,955.06
2018-05-31T01:44:57.180Z,955.07
2018-05-31T01:45:57.206Z,955.09
2018-05-31T01:46:57.234Z,955.09
2018-05-31T01:47:57.259Z,955.1
2018-05-31T01:48:57.284Z,955.12
2018-05-31T01:49:57.310Z,955.1
2018-05-31T01:50:57.335Z,955.07
2018-05-31T01:51:57.361Z,955.07
2018-05-31T01:52:57.388Z,955.06
2018-05-31T01:53:57.414Z,955.04
2018-05-31T01:54:57.439Z,955.03
2018-05-31T01:55:57.466Z,955.11
2018-05-31T01:56:57.490Z,955.06
2018-05-31T01:57:57.517Z,955.04
2018-05-31T01:58:57.543Z,955.04
2018-05-31T01:59:57.570Z,955.03
2018-05-31T02:00:57.599Z,955.03
2018-05-31T02:01:57.622Z,955.01
2018-05-31T02:02:57.653Z,955.04
2018-05-31T02:03:57.673Z,955.06
2018-05-31T02:04:57.699Z,955.01
2018-05-31T02:05:57.725Z,955.02
2018-05-31T02:06:57.751Z,955
2018-05-31T02:07:57.776Z,955.01
2018-05-31T02:08:57.801Z,955.01
2018-05-31T02:09:57.828Z,954.95
2018-05-31T02:10:57.854Z,954.93
2018-05-31T02:11:57.878Z,954.94
2018-05-31T02:12:57.904Z,954.9
2018-05-31T02:13:57.930Z,954.93
2018-05-31T02:14:57.954Z,954.91
2018-05-31T02:15:57.980Z,954.9
2018-05-31T02:16:58.005Z,954.89
2018-05-31T02:17:58.032Z,954.93
2018-05-31T02:18:58.058Z,954.93
2018-05-31T02:19:58.086Z,954.97
2018-05-31T02:20:58.110Z,954.93
2018-05-31T02:21:58.135Z,954.95
2018-05-31T02:22:58.160Z,954.99
2018-05-31T02:23:58.186Z,954.97
2018-05-31T02:24:58.213Z,954.91
2018-05-31T02:25:58.237Z,954.94
2018-05-31T02:26:58.263Z,954.91
2018-05-31T02:27:58.290Z,954.91
2018-05-31T02:28:58.315Z,954.94
2018-05-31T02:29:58.342Z,954.94
2018-05-31T02:30:58.365Z,954.94
2018-05-31T02:31:58.393Z,954.93
2018-05-31T02:32:58.415Z,954.96
2018-05-31T02:33:58.442Z,954.93
2018-05-31T02:34:58.468Z,954.96
2018-05-31T02:35:58.495Z,954.96
2018-05-31T02:36:58.519Z,954.98
2018-05-31T02:37:58.545Z,954.97
2018-05-31T02:38:58.571Z,954.97
2018-05-31T02:39:58.596Z,954.94
2018-05-31T02:40:58.622Z,954.99
2018-05-31T02:41:58.648Z,954.94
2018-05-31T02:42:58.673Z,954.94
2018-05-31T02:43:58.698Z,954.97
2018-05-31T02:44:58.724Z,954.96
2018-05-31T02:45:58.749Z,954.97
2018-05-31T02:46:58.776Z,954.99
2018-05-31T02:47:58.800Z,955
2018-05-31T02:48:58.827Z,955
2018-05-31T02:49:58.854Z,955.02
2018-05-31T02:50:58.877Z,955.08
2018-05-31T02:51:58.905Z,955.03
2018-05-31T02:52:58.933Z,955.01
2018-05-31T02:53:58.956Z,955.06
2018-05-31T02:54:58.978Z,955.06
2018-05-31T02:55:59.007Z,955.03
2018-05-31T02:56:59.043Z,955.05
2018-05-31T02:57:59.057Z,955.08
2018-05-31T02:58:59.081Z,955.08
2018-05-31T02:59:59.106Z,955.1
2018-05-31T03:00:59.132Z,955.06
2018-05-31T03:01:59.159Z,955.04
2018-05-31T03:02:59.182Z,955.05
2018-05-31T03:03:59.208Z,955.05
2018-05-31T03:04:59.237Z,955.01
2018-05-31T03:05:59.258Z,955.05
2018-05-31T03:06:59.284Z,955.08
2018-05-31T03:07:59.312Z,955.08
2018-05-31T03:08:59.334Z,955.1
2018-05-31T03:09:59.359Z,955.11
2018-05-31T03:10:59.384Z,955.16
2018-05-31T03:11:59.410Z,955.12
2018-05-31T03:12:59.437Z,955.13
2018-05-31T03:13:59.459Z,955.16
2018-05-31T03:14:59.486Z,955.12
2018-05-31T03:15:59.512Z,955.08
2018-05-31T03:16:59.534Z,955.08
2018-05-31T03:17:59.561Z,955.1
2018-05-31T03:18:59.587Z,955.09
2018-05-31T03:19:59.614Z,955.07
2018-05-31T03:20:59.642Z,955.03
2018-05-31T03:21:59.661Z,955.04
2018-05-31T03:22:59.688Z,955.06
2018-05-31T03:23:59.713Z,955.02
2018-05-31T03:24:59.737Z,955.02
2018-05-31T03:25:59.762Z,955.01
2018-05-31T03:26:59.787Z,955
2018-05-31T03:27:59.811Z,955.01
2018-05-31T03:28:59.837Z,954.98
2018-05-31T03:29:59.864Z,955.02
2018-05-31T03:30:59.892Z,955.02
2018-05-31T03:31:59.912Z,955.05
2018-05-31T03:32:59.938Z,955.04
2018-05-31T03:33:59.963Z,955.09
2018-05-31T03:34:59.995Z,955.11
2018-05-31T03:36:00.014Z,955.05
2018-05-31T03:37:00.041Z,955.07
2018-05-31T03:38:00.069Z,955.05
2018-05-31T03:39:00.091Z,955.02
2018-05-31T03:40:00.116Z,955
2018-05-31T03:41:00.142Z,954.99
2018-05-31T03:42:00.168Z,955.02
2018-05-31T03:43:00.191Z,955.03
2018-05-31T03:44:00.267Z,954.98
2018-05-31T03:45:00.244Z,955.01
2018-05-31T03:46:00.271Z,955.01
2018-05-31T03:47:00.292Z,955.03
2018-05-31T03:48:00.318Z,955.01
2018-05-31T03:49:00.345Z,954.98
2018-05-31T03:50:00.366Z,954.95
2018-05-31T03:51:00.394Z,954.95
2018-05-31T03:52:00.424Z,954.97
2018-05-31T03:53:00.447Z,954.97
2018-05-31T03:54:00.474Z,955
2018-05-31T03:55:00.496Z,955
2018-05-31T03:56:00.522Z,955.02
2018-05-31T03:57:00.547Z,954.98
2018-05-31T03:58:00.574Z,954.94
2018-05-31T03:59:00.649Z,954.97
2018-05-31T04:00:00.628Z,954.99
2018-05-31T04:01:00.650Z,954.96
2018-05-31T04:02:00.675Z,954.95
2018-05-31T04:03:00.701Z,954.93
2018-05-31T04:04:00.727Z,954.91
2018-05-31T04:05:00.755Z,954.9
2018-05-31T04:06:00.777Z,954.91
2018-05-31T04:07:00.803Z,954.93
2018-05-31T04:08:00.846Z,954.9
2018-05-31T04:09:00.855Z,954.9
2018-05-31T04:10:00.879Z,954.92
2018-05-31T04:11:00.907Z,954.88
2018-05-31T04:12:00.930Z,954.86
2018-05-31T04:13:00.989Z,954.87
2018-05-31T04:14:01.032Z,954.8
2018-05-31T04:15:01.008Z,954.83
2018-05-31T04:16:01.033Z,954.83
2018-05-31T04:17:01.067Z,954.83
2018-05-31T04:18:01.088Z,954.86
2018-05-31T04:19:01.116Z,954.9
2018-05-31T04:20:01.136Z,954.89
2018-05-31T04:21:01.161Z,954.9
2018-05-31T04:22:01.193Z,954.92
2018-05-31T04:23:01.215Z,954.9
2018-05-31T04:24:01.240Z,954.9
2018-05-31T04:25:01.265Z,954.91
2018-05-31T04:26:01.292Z,954.92
2018-05-31T04:27:01.317Z,954.92
2018-05-31T04:28:01.343Z,954.87
2018-05-31T04:29:01.423Z,954.94
2018-05-31T04:30:01.393Z,954.91
2018-05-31T04:31:01.421Z,954.93
2018-05-31T04:32:01.450Z,954.96
2018-05-31T04:33:01.472Z,954.92
2018-05-31T04:34:01.497Z,954.93
2018-05-31T04:35:01.523Z,954.96
2018-05-31T04:36:01.549Z,954.95
2018-05-31T04:37:01.577Z,954.93
2018-05-31T04:38:01.602Z,954.97
2018-05-31T04:39:01.626Z,954.97
2018-05-31T04:40:01.653Z,954.99
2018-05-31T04:41:01.678Z,954.96
2018-05-31T04:42:01.756Z,954.97
2018-05-31T04:43:01.733Z,954.96
2018-05-31T04:44:01.807Z,954.93
2018-05-31T04:45:01.785Z,954.94
2018-05-31T04:46:01.807Z,955
2018-05-31T04:47:01.846Z,954.98
2018-05-31T04:48:01.863Z,955
2018-05-31T04:49:01.886Z,954.98
2018-05-31T04:50:01.912Z,955
2018-05-31T04:51:01.939Z,955.01
2018-05-31T04:52:01.963Z,954.98
2018-05-31T04:53:01.988Z,955.01
2018-05-31T04:54:02.016Z,955.01
2018-05-31T04:55:02.039Z,955
2018-05-31T04:56:02.065Z,954.99
2018-05-31T04:57:02.091Z,955.03
2018-05-31T04:58:02.121Z,954.99
2018-05-31T04:59:02.193Z,954.97
2018-05-31T05:00:02.169Z,954.97
2018-05-31T05:01:02.195Z,954.97
2018-05-31T05:02:02.220Z,954.99
2018-05-31T05:03:02.284Z,955
2018-05-31T05:04:02.272Z,954.98
2018-05-31T05:05:02.299Z,954.96
2018-05-31T05:06:02.326Z,954.95
2018-05-31T05:07:02.350Z,954.98
2018-05-31T05:08:02.377Z,954.98
2018-05-31T05:09:02.408Z,954.96
2018-05-31T05:10:02.428Z,954.95
2018-05-31T05:11:02.453Z,954.98
2018-05-31T05:12:02.480Z,955
2018-05-31T05:13:02.507Z,954.98
2018-05-31T05:14:02.582Z,954.98
2018-05-31T05:15:02.560Z,954.97
2018-05-31T05:16:02.584Z,954.96
2018-05-31T05:17:02.614Z,954.98
2018-05-31T05:18:02.636Z,954.95
2018-05-31T05:19:02.662Z,954.99
2018-05-31T05:20:02.690Z,954.95
2018-05-31T05:21:02.716Z,954.96
2018-05-31T05:22:02.744Z,954.98
2018-05-31T05:23:02.769Z,955
2018-05-31T05:24:02.797Z,955
2018-05-31T05:25:02.821Z,955.01
2018-05-31T05:26:02.850Z,955.03
2018-05-31T05:27:02.887Z,955.04
2018-05-31T05:28:02.900Z,955.09
2018-05-31T05:29:04.178Z,955.12
2018-05-31T05:30:02.951Z,955.12
2018-05-31T05:31:02.978Z,955.16
2018-05-31T05:32:03.005Z,955.23
2018-05-31T05:33:03.031Z,955.19
2018-05-31T05:34:03.058Z,955.21
2018-05-31T05:35:03.086Z,955.27
2018-05-31T05:36:03.112Z,955.23
2018-05-31T05:37:03.136Z,955.23
2018-05-31T05:38:03.165Z,955.25
2018-05-31T05:39:03.191Z,955.28
2018-05-31T05:40:03.221Z,955.28
2018-05-31T05:41:03.243Z,955.25
2018-05-31T05:42:03.271Z,955.28
2018-05-31T05:43:03.301Z,955.27
2018-05-31T05:44:03.324Z,955.28
2018-05-31T05:45:03.351Z,955.29
2018-05-31T05:46:03.378Z,955.28
2018-05-31T05:47:03.403Z,955.32
2018-05-31T05:48:03.430Z,955.32
2018-05-31T05:49:03.458Z,955.36
2018-05-31T05:50:03.485Z,955.42
2018-05-31T05:51:03.518Z,955.42
2018-05-31T05:52:03.536Z,955.45
2018-05-31T05:53:03.564Z,955.44
2018-05-31T05:54:03.591Z,955.45
2018-05-31T05:55:03.617Z,955.49
2018-05-31T05:56:03.644Z,955.5
2018-05-31T05:57:03.671Z,955.51
2018-05-31T05:58:03.697Z,955.52
2018-05-31T05:59:03.735Z,955.55
2018-05-31T06:00:03.750Z,955.55
2018-05-31T06:01:03.778Z,955.57
2018-05-31T06:02:03.806Z,955.59
2018-05-31T06:03:03.832Z,955.57
2018-05-31T06:04:03.860Z,955.6
2018-05-31T06:05:03.884Z,955.64
2018-05-31T06:06:03.915Z,955.66
2018-05-31T06:07:03.950Z,955.68
2018-05-31T06:08:03.964Z,955.69
2018-05-31T06:09:03.998Z,955.73
2018-05-31T06:10:04.045Z,955.73
2018-05-31T06:11:04.043Z,955.76
2018-05-31T06:12:04.069Z,955.76
2018-05-31T06:13:04.099Z,955.76
2018-05-31T06:14:04.126Z,955.71
2018-05-31T06:15:04.172Z,955.71
2018-05-31T06:16:04.177Z,955.73
2018-05-31T06:17:04.209Z,955.76
2018-05-31T06:18:04.232Z,955.77
2018-05-31T06:19:04.261Z,955.76
2018-05-31T06:20:04.286Z,955.75
2018-05-31T06:21:04.311Z,955.75
2018-05-31T06:22:04.339Z,955.78
2018-05-31T06:23:04.386Z,955.8
2018-05-31T06:24:04.391Z,955.76
2018-05-31T06:25:04.422Z,955.79
2018-05-31T06:26:04.446Z,955.8
2018-05-31T06:27:04.473Z,955.79
2018-05-31T06:28:04.498Z,955.79
2018-05-31T06:29:04.525Z,955.81
2018-05-31T06:30:04.554Z,955.81
2018-05-31T06:31:04.583Z,955.82
2018-05-31T06:32:04.607Z,955.86
2018-05-31T06:33:04.635Z,955.85
2018-05-31T06:34:04.664Z,955.89
2018-05-31T06:35:04.686Z,955.86
2018-05-31T06:36:04.712Z,955.88
2018-05-31T06:37:04.787Z,955.89
2018-05-31T06:38:04.768Z,955.89
2018-05-31T06:39:04.793Z,955.91
2018-05-31T06:40:04.826Z,955.83
2018-05-31T06:41:04.851Z,955.86
2018-05-31T06:42:04.875Z,955.85
2018-05-31T06:43:04.903Z,955.88
2018-05-31T06:44:04.931Z,955.86
2018-05-31T06:45:04.958Z,955.84
2018-05-31T06:46:04.988Z,955.82
2018-05-31T06:47:05.013Z,955.87
2018-05-31T06:48:05.048Z,955.85
2018-05-31T06:49:05.066Z,955.88
2018-05-31T06:50:05.094Z,955.92
2018-05-31T06:51:05.121Z,955.89
2018-05-31T06:52:05.145Z,955.87
2018-05-31T06:53:05.177Z,955.9
2018-05-31T06:54:05.199Z,955.87
2018-05-31T06:55:05.234Z,955.87
2018-05-31T06:56:05.254Z,955.83
2018-05-31T06:57:05.284Z,955.83
2018-05-31T06:58:05.311Z,955.82
2018-05-31T06:59:05.338Z,955.84
2018-05-31T07:00:05.363Z,955.89
2018-05-31T07:01:05.391Z,955.79
2018-05-31T07:02:05.417Z,955.84
2018-05-31T07:03:05.446Z,955.88
2018-05-31T07:04:05.472Z,955.86
2018-05-31T07:05:05.496Z,955.87
2018-05-31T07:06:05.525Z,955.87
2018-05-31T07:07:05.550Z,955.85
2018-05-31T07:08:05.582Z,955.85
2018-05-31T07:09:05.610Z,955.88
2018-05-31T07:10:05.639Z,955.85
2018-05-31T07:11:05.664Z,955.86
2018-05-31T07:12:05.692Z,955.88
2018-05-31T07:13:05.719Z,955.83
2018-05-31T07:14:05.748Z,955.82
2018-05-31T07:15:05.774Z,955.82
2018-05-31T07:16:05.800Z,955.8
2018-05-31T07:17:05.829Z,955.8
2018-05-31T07:18:05.856Z,955.81
2018-05-31T07:19:05.883Z,955.81
2018-05-31T07:20:05.912Z,955.81
2018-05-31T07:21:05.938Z,955.81
2018-05-31T07:22:05.966Z,955.83
2018-05-31T07:23:05.996Z,955.76
2018-05-31T07:24:06.080Z,955.76
2018-05-31T07:25:06.053Z,955.77
2018-05-31T07:26:06.076Z,955.78
2018-05-31T07:27:06.108Z,955.79
2018-05-31T07:28:06.133Z,955.76
2018-05-31T07:29:06.158Z,955.75
2018-05-31T07:30:06.187Z,955.78
2018-05-31T07:31:06.215Z,955.79
2018-05-31T07:32:06.246Z,955.76
2018-05-31T07:33:06.271Z,955.75
2018-05-31T07:34:06.297Z,955.76
2018-05-31T07:35:06.345Z,955.74
2018-05-31T07:36:06.359Z,955.76
2018-05-31T07:37:06.380Z,955.76
2018-05-31T07:38:06.407Z,955.77
2018-05-31T07:39:06.437Z,955.79
2018-05-31T07:40:06.464Z,955.81
2018-05-31T07:41:06.491Z,955.82
2018-05-31T07:42:06.519Z,955.78
2018-05-31T07:43:06.559Z,955.79
2018-05-31T07:44:06.572Z,955.8
2018-05-31T07:45:06.601Z,955.8
2018-05-31T07:46:06.627Z,955.8
2018-05-31T07:47:06.656Z,955.79
2018-05-31T07:48:06.686Z,955.79
2018-05-31T07:49:06.713Z,955.8
2018-05-31T07:50:06.741Z,955.73
2018-05-31T07:51:06.785Z,955.74
2018-05-31T07:52:06.798Z,955.73
2018-05-31T07:53:06.825Z,955.72
2018-05-31T07:54:06.856Z,955.76
2018-05-31T07:55:06.881Z,955.74
2018-05-31T07:56:06.907Z,955.79
2018-05-31T07:57:06.935Z,955.82
2018-05-31T07:58:06.990Z,955.81
2018-05-31T07:59:06.998Z,955.78
2018-05-31T08:00:07.022Z,955.81
2018-05-31T08:01:07.046Z,955.78
2018-05-31T08:02:07.073Z,955.79
2018-05-31T08:03:07.101Z,955.8
2018-05-31T08:04:07.130Z,955.8
2018-05-31T08:05:07.158Z,955.8
2018-05-31T08:06:07.186Z,955.86
2018-05-31T08:07:07.215Z,955.87
2018-05-31T08:08:07.243Z,955.86
2018-05-31T08:09:07.270Z,955.89
2018-05-31T08:10:07.299Z,955.92
2018-05-31T08:11:07.327Z,955.95
2018-05-31T08:12:07.355Z,955.94
2018-05-31T08:13:07.384Z,955.94
2018-05-31T08:14:07.412Z,955.94
2018-05-31T08:15:07.447Z,955.91
2018-05-31T08:16:07.470Z,955.9
2018-05-31T08:17:07.497Z,955.88
2018-05-31T08:18:07.525Z,955.89
2018-05-31T08:19:07.557Z,955.88
2018-05-31T08:20:07.586Z,955.89
2018-05-31T08:21:07.614Z,955.91
2018-05-31T08:22:07.642Z,955.95
2018-05-31T08:23:07.674Z,955.94
2018-05-31T08:24:07.698Z,955.91
2018-05-31T08:25:07.728Z,955.92
2018-05-31T08:26:07.760Z,955.93
2018-05-31T08:27:07.786Z,955.92
2018-05-31T08:28:07.812Z,955.89
2018-05-31T08:29:07.841Z,955.91
2018-05-31T08:30:07.874Z,955.91
2018-05-31T08:31:07.900Z,955.88
2018-05-31T08:32:07.929Z,955.84
2018-05-31T08:33:07.958Z,955.86
2018-05-31T08:34:07.988Z,955.87
2018-05-31T08:35:08.015Z,955.89
2018-05-31T08:36:08.043Z,955.88
2018-05-31T08:37:08.073Z,955.89
2018-05-31T08:38:08.115Z,955.88
2018-05-31T08:39:08.130Z,955.87
2018-05-31T08:40:08.159Z,955.89
2018-05-31T08:41:08.188Z,955.89
2018-05-31T08:42:08.216Z,955.87
2018-05-31T08:43:08.245Z,955.89
2018-05-31T08:44:08.301Z,955.86
2018-05-31T08:45:08.306Z,955.86
2018-05-31T08:46:08.330Z,955.85
2018-05-31T08:47:08.358Z,955.89
2018-05-31T08:48:08.389Z,955.87
2018-05-31T08:49:08.416Z,955.88
2018-05-31T08:50:08.445Z,955.84
2018-05-31T08:51:08.506Z,955.89
2018-05-31T08:52:08.502Z,955.86
2018-05-31T08:53:08.535Z,955.85
2018-05-31T08:54:08.562Z,955.85
2018-05-31T08:55:08.595Z,955.84
2018-05-31T08:56:08.620Z,955.87
2018-05-31T08:57:08.649Z,955.86
2018-05-31T08:58:08.680Z,955.87
2018-05-31T08:59:08.708Z,955.85
2018-05-31T09:00:08.741Z,955.86
2018-05-31T09:01:08.766Z,955.82
2018-05-31T09:02:08.796Z,955.83
2018-05-31T09:03:08.826Z,955.84
2018-05-31T09:04:08.854Z,955.84
2018-05-31T09:05:08.883Z,955.89
2018-05-31T09:06:08.911Z,955.89
2018-05-31T09:07:08.940Z,955.86
2018-05-31T09:08:08.969Z,955.89
2018-05-31T09:09:08.998Z,955.86
2018-05-31T09:10:09.030Z,955.85
2018-05-31T09:11:09.060Z,955.84
2018-05-31T09:12:09.100Z,955.85
2018-05-31T09:13:09.117Z,955.81
2018-05-31T09:14:09.144Z,955.77
2018-05-31T09:15:09.193Z,955.83
2018-05-31T09:16:09.205Z,955.85
2018-05-31T09:17:09.235Z,955.8
2018-05-31T09:18:09.264Z,955.82
2018-05-31T09:19:09.293Z,955.84
2018-05-31T09:20:09.323Z,955.86
2018-05-31T09:21:09.354Z,955.84
2018-05-31T09:22:09.383Z,955.82
2018-05-31T09:23:09.412Z,955.79
2018-05-31T09:24:09.444Z,955.8
2018-05-31T09:25:09.471Z,955.81
2018-05-31T09:26:09.501Z,955.77
2018-05-31T09:27:09.530Z,955.77
2018-05-31T09:28:09.560Z,955.74
2018-05-31T09:29:09.591Z,955.74
2018-05-31T09:30:09.619Z,955.77
2018-05-31T09:31:09.649Z,955.73
2018-05-31T09:32:09.679Z,955.78
2018-05-31T09:33:09.708Z,955.8
2018-05-31T09:34:09.737Z,955.78
2018-05-31T09:35:09.768Z,955.81
2018-05-31T09:36:09.798Z,955.79
2018-05-31T09:37:09.829Z,955.85
2018-05-31T09:38:09.858Z,955.84
2018-05-31T09:39:09.892Z,955.82
2018-05-31T09:40:09.920Z,955.79
2018-05-31T09:41:09.978Z,955.82
2018-05-31T09:42:09.981Z,955.81
2018-05-31T09:43:10.011Z,955.78
2018-05-31T09:44:10.048Z,955.76
2018-05-31T09:45:10.069Z,955.77
2018-05-31T09:46:10.100Z,955.79
2018-05-31T09:47:10.131Z,955.78
2018-05-31T09:48:10.161Z,955.81
2018-05-31T09:49:10.193Z,955.78
2018-05-31T09:50:10.223Z,955.82
2018-05-31T09:51:10.254Z,955.83
2018-05-31T09:52:10.284Z,955.81
2018-05-31T09:53:10.338Z,955.83
2018-05-31T09:54:10.346Z,955.77
2018-05-31T09:55:10.431Z,955.84
2018-05-31T09:56:10.408Z,955.8
2018-05-31T09:57:10.442Z,955.79
2018-05-31T09:58:10.533Z,955.85
2018-05-31T09:59:10.504Z,955.9
2018-05-31T10:00:10.536Z,955.88
2018-05-31T10:01:10.572Z,955.84
2018-05-31T10:02:10.603Z,955.84
2018-05-31T10:03:10.634Z,955.81
2018-05-31T10:04:10.667Z,955.81
2018-05-31T10:05:10.744Z,955.81
2018-05-31T10:06:10.731Z,955.79
2018-05-31T10:07:10.763Z,955.79
2018-05-31T10:08:10.797Z,955.74
2018-05-31T10:09:10.830Z,955.77
2018-05-31T10:10:10.921Z,955.73
2018-05-31T10:11:10.896Z,955.72
2018-05-31T10:12:10.928Z,955.73
2018-05-31T10:13:10.968Z,955.69
2018-05-31T10:14:10.995Z,955.73
2018-05-31T10:15:11.029Z,955.74
2018-05-31T10:16:11.060Z,955.76
2018-05-31T10:17:11.133Z,955.75
2018-05-31T10:18:11.138Z,955.75
2018-05-31T10:19:11.161Z,955.73
2018-05-31T10:20:11.193Z,955.74
2018-05-31T10:21:11.226Z,955.73
2018-05-31T10:22:11.259Z,955.77
2018-05-31T10:23:11.295Z,955.8
2018-05-31T10:24:11.327Z,955.77
2018-05-31T10:25:11.410Z,955.8
2018-05-31T10:26:11.395Z,955.82
2018-05-31T10:27:11.431Z,955.81
2018-05-31T10:28:11.463Z,955.85
2018-05-31T10:29:11.498Z,955.84
2018-05-31T10:30:11.580Z,955.82
2018-05-31T10:31:11.566Z,955.85
2018-05-31T10:32:11.602Z,955.83
2018-05-31T10:33:11.634Z,955.85
2018-05-31T10:34:11.669Z,955.84
2018-05-31T10:35:11.854Z,955.83
2018-05-31T10:36:11.739Z,955.81
2018-05-31T10:37:11.771Z,955.82
2018-05-31T10:38:11.805Z,955.82
2018-05-31T10:39:11.840Z,955.84
2018-05-31T10:40:11.875Z,955.79
2018-05-31T10:41:11.910Z,955.82
2018-05-31T10:42:11.944Z,955.83
2018-05-31T10:43:11.978Z,955.78
2018-05-31T10:44:12.015Z,955.8
2018-05-31T10:45:12.049Z,955.78
2018-05-31T10:46:12.085Z,955.82
2018-05-31T10:47:12.117Z,955.82
2018-05-31T10:48:12.153Z,955.81
2018-05-31T10:49:12.188Z,955.78
2018-05-31T10:50:12.273Z,955.76
2018-05-31T10:51:12.259Z,955.76
2018-05-31T10:52:12.308Z,955.76
2018-05-31T10:53:12.330Z,955.76
2018-05-31T10:54:12.365Z,955.76
2018-05-31T10:55:12.401Z,955.77
2018-05-31T10:56:12.435Z,955.74
2018-05-31T10:57:12.472Z,955.76
2018-05-31T10:58:12.505Z,955.73
2018-05-31T10:59:12.583Z,955.7
2018-05-31T11:00:12.576Z,955.7
2018-05-31T11:01:12.612Z,955.68
2018-05-31T11:02:12.651Z,955.68
2018-05-31T11:03:12.683Z,955.68
2018-05-31T11:04:12.719Z,955.69
2018-05-31T11:05:12.905Z,955.71
2018-05-31T11:06:12.791Z,955.69
2018-05-31T11:07:12.827Z,955.69
2018-05-31T11:08:12.865Z,955.66
2018-05-31T11:09:12.900Z,955.72
2018-05-31T11:10:12.987Z,955.69
2018-05-31T11:11:12.972Z,955.68
2018-05-31T11:12:13.007Z,955.67
2018-05-31T11:13:13.044Z,955.67
2018-05-31T11:14:13.083Z,955.63
2018-05-31T11:15:13.117Z,955.67
2018-05-31T11:16:13.152Z,955.68
2018-05-31T11:17:13.188Z,955.65
2018-05-31T11:18:13.225Z,955.67
2018-05-31T11:19:13.261Z,955.67
2018-05-31T11:20:13.348Z,955.68
2018-05-31T11:21:13.334Z,955.66
2018-05-31T11:22:13.372Z,955.68
2018-05-31T11:23:13.407Z,955.67
2018-05-31T11:24:13.444Z,955.65
2018-05-31T11:25:13.481Z,955.69
2018-05-31T11:26:13.518Z,955.69
2018-05-31T11:27:13.552Z,955.7
2018-05-31T11:28:13.590Z,955.68
2018-05-31T11:29:13.644Z,955.68
2018-05-31T11:30:13.717Z,955.67
2018-05-31T11:31:13.701Z,955.68
2018-05-31T11:32:13.738Z,955.65
2018-05-31T11:33:13.775Z,955.59
2018-05-31T11:34:13.810Z,955.62
2018-05-31T11:35:13.853Z,955.63
2018-05-31T11:36:13.884Z,955.65
2018-05-31T11:37:13.921Z,955.61
2018-05-31T11:38:13.957Z,955.64
2018-05-31T11:39:14.001Z,955.64
2018-05-31T11:40:14.031Z,955.64
2018-05-31T11:41:14.069Z,955.65
2018-05-31T11:42:14.112Z,955.61
2018-05-31T11:43:14.142Z,955.61
2018-05-31T11:44:14.182Z,955.62
2018-05-31T11:45:14.266Z,955.6
2018-05-31T11:46:14.253Z,955.56
2018-05-31T11:47:14.291Z,955.57
2018-05-31T11:48:14.329Z,955.53
2018-05-31T11:49:14.373Z,955.52
2018-05-31T11:50:14.403Z,955.5
2018-05-31T11:51:14.440Z,955.49
2018-05-31T11:52:14.477Z,955.5
2018-05-31T11:53:14.512Z,955.51
2018-05-31T11:54:14.553Z,955.44
2018-05-31T11:55:14.589Z,955.47
2018-05-31T11:56:14.625Z,955.46
2018-05-31T11:57:14.664Z,955.42
2018-05-31T11:58:14.707Z,955.4
2018-05-31T11:59:14.746Z,955.38
2018-05-31T12:00:14.827Z,955.32
2018-05-31T12:01:14.819Z,955.3
2018-05-31T12:02:14.850Z,955.24
2018-05-31T12:03:14.888Z,955.26
2018-05-31T12:04:14.927Z,955.24
2018-05-31T12:05:14.966Z,955.25
2018-05-31T12:06:15.001Z,955.2
2018-05-31T12:07:15.041Z,955.21
2018-05-31T12:08:15.131Z,955.17
2018-05-31T12:09:15.116Z,955.2
2018-05-31T12:10:15.168Z,955.19
2018-05-31T12:11:15.192Z,955.15
2018-05-31T12:12:15.253Z,955.13
2018-05-31T12:13:15.268Z,955.11
2018-05-31T12:14:15.306Z,955.09
2018-05-31T12:15:15.399Z,955.13
2018-05-31T12:16:15.382Z,955.1
2018-05-31T12:17:15.422Z,955.13
2018-05-31T12:18:15.459Z,955.16
2018-05-31T12:19:15.498Z,955.17
2018-05-31T12:20:15.536Z,955.17
2018-05-31T12:21:15.575Z,955.17
2018-05-31T12:22:15.612Z,955.17
2018-05-31T12:23:15.650Z,955.19
2018-05-31T12:24:15.690Z,955.15
2018-05-31T12:25:15.727Z,955.17
2018-05-31T12:26:15.766Z,955.17
2018-05-31T12:27:15.805Z,955.19
2018-05-31T12:28:15.844Z,955.17
2018-05-31T12:29:15.881Z,955.2
2018-05-31T12:30:15.979Z,955.12
2018-05-31T12:31:15.958Z,955.15
2018-05-31T12:32:16.086Z,955.1
2018-05-31T12:33:16.037Z,955.09